createdAt,value
2022-07-28T00:00:45.643Z,0.00
2022-07-28T00:01:45.737Z,0.00
2022-07-28T00:02:45.695Z,0.00
2022-07-28T00:03:45.629Z,0.00
2022-07-28T00:04:45.621Z,0.00
2022-07-28T00:05:45.647Z,0.00
2022-07-28T00:06:45.667Z,0.00
2022-07-28T00:07:45.676Z,0.00
2022-07-28T00:08:45.657Z,0.00
2022-07-28T00:09:45.650Z,0.00
2022-07-28T00:10:45.673Z,0.00
2022-07-28T00:11:50.265Z,0.00
2022-07-28T00:12:45.677Z,0.00
2022-07-28T00:13:45.667Z,0.00
2022-07-28T00:14:45.649Z,0.00
2022-07-28T00:15:45.680Z,0.00
2022-07-28T00:16:45.768Z,0.00
2022-07-28T00:17:45.779Z,0.00
2022-07-28T00:18:45.773Z,0.00
2022-07-28T00:19:45.750Z,0.00
2022-07-28T00:20:45.779Z,0.00
2022-07-28T00:21:45.788Z,0.00
2022-07-28T00:22:45.841Z,0.00
2022-07-28T00:23:45.826Z,0.00
2022-07-28T00:24:45.804Z,0.00
2022-07-28T00:25:45.869Z,0.00
2022-07-28T00:26:46.871Z,0.00
2022-07-28T00:27:45.832Z,0.00
2022-07-28T00:28:45.897Z,0.00
2022-07-28T00:29:50.539Z,0.00
2022-07-28T00:30:45.918Z,0.00
2022-07-28T00:31:45.983Z,0.00
2022-07-28T00:32:45.917Z,0.00
2022-07-28T00:33:45.964Z,0.00
2022-07-28T00:34:45.963Z,0.00
2022-07-28T00:35:48.485Z,0.00
2022-07-28T00:36:45.944Z,0.00
2022-07-28T00:37:45.958Z,0.00
2022-07-28T00:38:48.851Z,0.00
2022-07-28T00:39:45.997Z,0.00
2022-07-28T00:40:45.984Z,0.00
2022-07-28T00:41:46.000Z,0.00
2022-07-28T00:42:45.962Z,0.00
2022-07-28T00:43:45.998Z,0.00
2022-07-28T00:44:46.038Z,0.00
2022-07-28T00:45:46.032Z,0.00
2022-07-28T00:46:46.108Z,0.00
2022-07-28T00:47:46.025Z,0.00
2022-07-28T00:48:46.179Z,0.00
2022-07-28T00:49:46.103Z,0.00
2022-07-28T00:50:46.093Z,0.00
2022-07-28T00:51:46.123Z,0.00
2022-07-28T00:52:46.147Z,0.00
2022-07-28T00:53:46.144Z,0.00
2022-07-28T00:54:46.174Z,0.00
2022-07-28T00:56:03.574Z,0.00
2022-07-28T00:56:46.233Z,0.00
2022-07-28T00:57:46.244Z,0.00
2022-07-28T00:58:46.205Z,0.00
2022-07-28T00:59:46.240Z,0.00
2022-07-28T01:00:46.288Z,0.00
2022-07-28T01:01:46.460Z,0.00
2022-07-28T01:02:46.574Z,0.00
2022-07-28T01:03:46.338Z,0.00
2022-07-28T01:04:46.346Z,0.00
2022-07-28T01:05:46.314Z,0.00
2022-07-28T01:06:46.336Z,0.00
2022-07-28T01:07:46.375Z,0.00
2022-07-28T01:08:46.448Z,0.00
2022-07-28T01:09:46.430Z,0.00
2022-07-28T01:10:46.482Z,0.00
2022-07-28T01:11:46.459Z,0.00
2022-07-28T01:12:46.485Z,0.00
2022-07-28T01:13:46.512Z,0.00
2022-07-28T01:14:46.521Z,0.00
2022-07-28T01:15:46.535Z,0.00
2022-07-28T01:16:46.499Z,0.00
2022-07-28T01:17:46.567Z,0.00
2022-07-28T01:18:46.566Z,0.00
2022-07-28T01:19:46.773Z,0.00
2022-07-28T01:20:46.596Z,0.00
2022-07-28T01:21:46.641Z,0.00
2022-07-28T01:22:46.673Z,0.00
2022-07-28T01:23:46.651Z,0.00
2022-07-28T01:24:46.674Z,0.00
2022-07-28T01:25:48.708Z,0.00
2022-07-28T01:26:46.675Z,0.00
2022-07-28T01:27:46.676Z,0.00
2022-07-28T01:28:46.646Z,0.00
2022-07-28T01:29:46.674Z,0.00
2022-07-28T01:30:46.784Z,0.00
2022-07-28T01:31:46.761Z,0.00
2022-07-28T01:32:46.724Z,0.00
2022-07-28T01:33:46.707Z,0.00
2022-07-28T01:34:46.736Z,0.00
2022-07-28T01:35:46.763Z,0.00
2022-07-28T01:36:46.761Z,0.00
2022-07-28T01:37:46.819Z,0.00
2022-07-28T01:38:46.813Z,0.00
2022-07-28T01:39:46.788Z,0.00
2022-07-28T01:40:50.249Z,0.00
2022-07-28T01:41:46.818Z,0.00
2022-07-28T01:42:46.834Z,0.00
2022-07-28T01:43:46.826Z,0.00
2022-07-28T01:44:46.864Z,0.00
2022-07-28T01:45:46.847Z,0.00
2022-07-28T01:46:46.990Z,0.00
2022-07-28T01:47:46.896Z,0.00
2022-07-28T01:48:46.946Z,0.00
2022-07-28T01:49:46.885Z,0.00
2022-07-28T01:50:46.936Z,0.00
2022-07-28T01:51:46.932Z,0.00
2022-07-28T01:52:46.915Z,0.00
2022-07-28T01:53:46.914Z,0.00
2022-07-28T01:54:46.941Z,0.00
2022-07-28T01:55:46.985Z,0.00
2022-07-28T01:56:46.990Z,0.00
2022-07-28T01:57:47.051Z,0.00
2022-07-28T01:58:47.028Z,0.00
2022-07-28T01:59:47.064Z,0.00
2022-07-28T02:00:47.080Z,0.00
2022-07-28T02:01:47.227Z,0.00
2022-07-28T02:02:47.120Z,0.00
2022-07-28T02:03:47.111Z,0.00
2022-07-28T02:04:47.226Z,0.00
2022-07-28T02:05:47.138Z,0.00
2022-07-28T02:06:47.175Z,0.00
2022-07-28T02:07:47.188Z,0.00
2022-07-28T02:08:47.170Z,0.00
2022-07-28T02:09:47.217Z,0.00
2022-07-28T02:10:47.313Z,0.00
2022-07-28T02:11:47.205Z,0.00
2022-07-28T02:12:47.257Z,0.00
2022-07-28T02:13:47.226Z,0.00
2022-07-28T02:14:47.260Z,0.00
2022-07-28T02:15:47.341Z,0.00
2022-07-28T02:16:47.275Z,0.00
2022-07-28T02:17:47.340Z,0.00
2022-07-28T02:18:47.277Z,0.00
2022-07-28T02:19:47.279Z,0.00
2022-07-28T02:20:47.315Z,0.00
2022-07-28T02:21:47.379Z,0.00
2022-07-28T02:22:51.460Z,0.00
2022-07-28T02:23:47.384Z,0.00
2022-07-28T02:24:47.367Z,0.00
2022-07-28T02:25:47.402Z,0.00
2022-07-28T02:26:47.433Z,0.00
2022-07-28T02:27:47.470Z,0.00
2022-07-28T02:28:47.457Z,0.00
2022-07-28T02:29:51.041Z,0.00
2022-07-28T02:30:47.535Z,0.00
2022-07-28T02:31:47.486Z,0.00
2022-07-28T02:32:47.509Z,0.00
2022-07-28T02:33:58.852Z,0.00
2022-07-28T02:34:47.495Z,0.00
2022-07-28T02:35:49.031Z,0.00
2022-07-28T02:36:47.517Z,0.00
2022-07-28T02:37:47.550Z,0.00
2022-07-28T02:38:47.530Z,0.00
2022-07-28T02:39:58.711Z,0.00
2022-07-28T02:40:47.579Z,0.00
2022-07-28T02:41:47.617Z,0.00
2022-07-28T02:42:47.617Z,0.00
2022-07-28T02:43:50.347Z,0.00
2022-07-28T02:44:47.630Z,0.00
2022-07-28T02:45:47.686Z,0.00
2022-07-28T02:46:47.609Z,0.00
2022-07-28T02:47:47.667Z,0.00
2022-07-28T02:48:47.719Z,0.00
2022-07-28T02:49:47.657Z,0.00
2022-07-28T02:50:47.669Z,0.00
2022-07-28T02:51:47.647Z,0.00
2022-07-28T02:52:47.689Z,0.00
2022-07-28T02:53:47.687Z,0.00
2022-07-28T02:54:47.672Z,0.00
2022-07-28T02:55:47.683Z,0.00
2022-07-28T02:56:53.301Z,0.00
2022-07-28T02:57:47.677Z,0.00
2022-07-28T02:58:47.708Z,0.00
2022-07-28T02:59:47.689Z,0.00
2022-07-28T03:00:47.727Z,0.00
2022-07-28T03:01:47.831Z,0.00
2022-07-28T03:02:47.751Z,0.00
2022-07-28T03:03:47.751Z,0.00
2022-07-28T03:04:47.784Z,0.00
2022-07-28T03:05:47.740Z,0.00
2022-07-28T03:06:47.770Z,0.00
2022-07-28T03:07:50.766Z,0.00
2022-07-28T03:08:47.816Z,0.00
2022-07-28T03:09:47.792Z,0.00
2022-07-28T03:10:47.833Z,0.00
2022-07-28T03:11:47.873Z,0.00
2022-07-28T03:12:47.893Z,0.00
2022-07-28T03:13:47.850Z,0.00
2022-07-28T03:14:47.884Z,1.00
2022-07-28T03:15:47.936Z,1.00
2022-07-28T03:16:51.110Z,0.00
2022-07-28T03:17:47.962Z,0.00
2022-07-28T03:18:47.929Z,1.00
2022-07-28T03:19:47.968Z,1.00
2022-07-28T03:20:47.997Z,1.00
2022-07-28T03:21:48.044Z,1.00
2022-07-28T03:22:48.012Z,1.00
2022-07-28T03:23:48.038Z,2.00
2022-07-28T03:24:48.076Z,1.00
2022-07-28T03:25:48.108Z,2.00
2022-07-28T03:26:48.148Z,2.00
2022-07-28T03:27:48.150Z,3.00
2022-07-28T03:28:48.132Z,3.00
2022-07-28T03:29:48.161Z,2.00
2022-07-28T03:30:48.265Z,3.00
2022-07-28T03:31:48.164Z,4.00
2022-07-28T03:32:48.237Z,4.00
2022-07-28T03:33:48.210Z,5.00
2022-07-28T03:34:48.214Z,5.00
2022-07-28T03:35:48.269Z,6.00
2022-07-28T03:36:48.284Z,6.00
2022-07-28T03:37:48.277Z,7.00
2022-07-28T03:38:48.327Z,9.00
2022-07-28T03:39:48.359Z,9.00
2022-07-28T03:40:48.315Z,10.00
2022-07-28T03:41:48.370Z,12.00
2022-07-28T03:42:48.364Z,12.00
2022-07-28T03:43:48.396Z,14.00
2022-07-28T03:44:48.414Z,15.00
2022-07-28T03:45:48.425Z,17.00
2022-07-28T03:46:48.394Z,18.00
2022-07-28T03:47:48.396Z,18.00
2022-07-28T03:48:48.535Z,19.00
2022-07-28T03:49:48.453Z,20.00
2022-07-28T03:50:48.436Z,22.00
2022-07-28T03:51:48.431Z,23.00
2022-07-28T03:52:48.469Z,24.00
2022-07-28T03:53:48.517Z,25.00
2022-07-28T03:54:48.644Z,26.00
2022-07-28T03:55:48.515Z,27.00
2022-07-28T03:56:48.549Z,28.00
2022-07-28T03:57:48.605Z,29.00
2022-07-28T03:58:48.602Z,31.00
2022-07-28T03:59:48.592Z,33.00
2022-07-28T04:00:48.739Z,35.00
2022-07-28T04:01:48.630Z,37.00
2022-07-28T04:02:48.734Z,38.00
2022-07-28T04:03:48.661Z,41.00
2022-07-28T04:04:48.680Z,44.00
2022-07-28T04:05:48.695Z,47.00
2022-07-28T04:06:48.745Z,50.00
2022-07-28T04:07:48.771Z,53.00
2022-07-28T04:08:48.769Z,57.00
2022-07-28T04:09:48.789Z,59.00
2022-07-28T04:10:48.801Z,62.00
2022-07-28T04:11:48.841Z,66.00
2022-07-28T04:12:48.819Z,69.00
2022-07-28T04:13:48.825Z,71.00
2022-07-28T04:14:48.862Z,73.00
2022-07-28T04:15:48.875Z,76.00
2022-07-28T04:16:49.017Z,78.00
2022-07-28T04:17:48.968Z,81.00
2022-07-28T04:18:48.973Z,83.00
2022-07-28T04:19:48.941Z,87.00
2022-07-28T04:20:48.977Z,91.00
2022-07-28T04:21:48.998Z,96.00
2022-07-28T04:22:48.986Z,102.00
2022-07-28T04:23:49.026Z,108.00
2022-07-28T04:24:49.063Z,113.00
2022-07-28T04:25:49.015Z,119.00
2022-07-28T04:26:49.068Z,127.00
2022-07-28T04:27:49.080Z,138.00
2022-07-28T04:28:49.091Z,148.00
2022-07-28T04:29:49.065Z,155.00
2022-07-28T04:30:49.119Z,160.00
2022-07-28T04:31:49.079Z,164.00
2022-07-28T04:32:49.107Z,169.00
2022-07-28T04:33:49.089Z,176.00
2022-07-28T04:34:49.128Z,181.00
2022-07-28T04:35:49.143Z,186.00
2022-07-28T04:36:49.163Z,195.00
2022-07-28T04:37:49.201Z,199.00
2022-07-28T04:38:49.187Z,201.00
2022-07-28T04:39:49.174Z,198.00
2022-07-28T04:40:49.158Z,201.00
2022-07-28T04:41:49.217Z,207.00
2022-07-28T04:42:49.222Z,213.00
2022-07-28T04:43:49.180Z,214.00
2022-07-28T04:44:49.228Z,219.00
2022-07-28T04:45:53.715Z,232.00
2022-07-28T04:46:49.270Z,238.00
2022-07-28T04:47:49.238Z,238.00
2022-07-28T04:48:49.348Z,232.00
2022-07-28T04:49:49.341Z,231.00
2022-07-28T04:50:49.356Z,229.00
2022-07-28T04:51:49.341Z,229.00
2022-07-28T04:52:49.381Z,234.00
2022-07-28T04:53:49.352Z,244.00
2022-07-28T04:54:49.344Z,256.00
2022-07-28T04:55:49.472Z,265.00
2022-07-28T04:56:49.396Z,268.00
2022-07-28T04:57:49.406Z,266.00
2022-07-28T04:58:49.508Z,269.00
2022-07-28T04:59:49.465Z,271.00
2022-07-28T05:02:15.370Z,262.00
2022-07-28T05:03:15.401Z,267.00
2022-07-28T05:04:15.869Z,270.00
2022-07-28T05:05:15.491Z,276.00
2022-07-28T05:06:15.425Z,283.00
2022-07-28T05:07:15.425Z,289.00
2022-07-28T05:08:15.468Z,288.00
2022-07-28T05:09:15.444Z,279.00
2022-07-28T05:10:15.482Z,270.00
2022-07-28T05:11:15.481Z,274.00
2022-07-28T05:12:15.482Z,277.00
2022-07-28T05:13:15.537Z,277.00
2022-07-28T05:14:15.673Z,275.00
2022-07-28T05:15:15.535Z,279.00
2022-07-28T05:16:15.601Z,282.00
2022-07-28T05:17:15.561Z,283.00
2022-07-28T05:18:15.569Z,285.00
2022-07-28T05:19:15.585Z,292.00
2022-07-28T05:20:15.611Z,296.00
2022-07-28T05:21:15.612Z,299.00
2022-07-28T05:22:15.631Z,307.00
2022-07-28T05:23:15.679Z,322.00
2022-07-28T05:24:15.973Z,340.00
2022-07-28T05:25:15.668Z,347.00
2022-07-28T05:26:15.701Z,342.00
2022-07-28T05:27:15.684Z,350.00
2022-07-28T05:28:15.705Z,359.00
2022-07-28T05:29:15.723Z,363.00
2022-07-28T05:30:15.740Z,380.00
2022-07-28T05:31:15.787Z,409.00
2022-07-28T05:32:17.369Z,428.00
2022-07-28T05:33:15.714Z,427.00
2022-07-28T05:34:16.073Z,410.00
2022-07-28T05:35:15.692Z,395.00
2022-07-28T05:36:15.902Z,382.00
2022-07-28T05:37:15.714Z,378.00
2022-07-28T05:38:15.732Z,381.00
2022-07-28T05:39:15.755Z,390.00
2022-07-28T05:40:15.782Z,407.00
2022-07-28T05:41:15.774Z,426.00
2022-07-28T05:42:15.908Z,437.00
2022-07-28T05:43:15.791Z,424.00
2022-07-28T05:44:16.092Z,405.00
2022-07-28T05:45:17.479Z,403.00
2022-07-28T05:46:15.933Z,411.00
2022-07-28T05:47:15.879Z,419.00
2022-07-28T05:48:15.891Z,414.00
2022-07-28T05:50:41.892Z,366.00
2022-07-28T05:51:42.056Z,368.00
2022-07-28T05:52:41.872Z,361.00
2022-07-28T05:53:41.874Z,345.00
2022-07-28T05:54:41.930Z,365.00
2022-07-28T05:56:00.760Z,365.00
2022-07-28T05:56:43.274Z,367.00
2022-07-28T05:57:41.945Z,370.00
2022-07-28T05:58:41.963Z,377.00
2022-07-28T05:59:41.945Z,375.00
2022-07-28T06:00:42.161Z,381.00
2022-07-28T06:01:42.096Z,661.00
2022-07-28T06:02:42.058Z,729.00
2022-07-28T06:03:42.691Z,733.00
2022-07-28T06:04:42.002Z,718.00
2022-07-28T06:06:00.848Z,703.00
2022-07-28T06:06:42.075Z,704.00
2022-07-28T06:07:42.717Z,693.00
2022-07-28T06:08:42.057Z,729.00
2022-07-28T06:09:45.135Z,674.00
2022-07-28T06:10:42.048Z,679.00
2022-07-28T06:11:42.074Z,695.00
2022-07-28T06:12:42.071Z,705.00
2022-07-28T06:13:42.101Z,703.00
2022-07-28T06:14:42.116Z,705.00
2022-07-28T06:15:42.109Z,704.00
2022-07-28T06:16:42.188Z,707.00
2022-07-28T06:17:42.112Z,709.00
2022-07-28T06:18:42.135Z,712.00
2022-07-28T06:19:42.120Z,710.00
2022-07-28T06:20:42.136Z,713.00
2022-07-28T06:21:42.181Z,712.00
2022-07-28T06:22:42.198Z,712.00
2022-07-28T06:23:42.223Z,710.00
2022-07-28T06:24:42.203Z,711.00
2022-07-28T06:25:42.241Z,708.00
2022-07-28T06:26:44.921Z,706.00
2022-07-28T06:27:42.251Z,702.00
2022-07-28T06:28:42.297Z,708.00
2022-07-28T06:29:42.281Z,711.00
2022-07-28T06:30:42.263Z,722.00
2022-07-28T06:31:42.332Z,743.00
2022-07-28T06:32:42.274Z,753.00
2022-07-28T06:33:42.294Z,757.00
2022-07-28T06:34:42.326Z,744.00
2022-07-28T06:35:47.815Z,746.00
2022-07-28T06:36:42.366Z,769.00
2022-07-28T06:37:42.439Z,754.00
2022-07-28T06:38:42.407Z,749.00
2022-07-28T06:39:42.377Z,756.00
2022-07-28T06:40:42.387Z,781.00
2022-07-28T06:41:42.405Z,812.00
2022-07-28T06:42:42.416Z,831.00
2022-07-28T06:43:42.454Z,845.00
2022-07-28T06:44:57.987Z,861.00
2022-07-28T06:45:42.476Z,872.00
2022-07-28T06:46:42.569Z,854.00
2022-07-28T06:47:47.214Z,824.00
2022-07-28T06:48:42.616Z,856.00
2022-07-28T06:49:42.557Z,866.00
2022-07-28T06:50:42.581Z,852.00
2022-07-28T06:51:42.614Z,866.00
2022-07-28T06:52:42.641Z,608.00
2022-07-28T06:53:42.643Z,641.00
2022-07-28T06:54:42.675Z,656.00
2022-07-28T06:55:42.692Z,632.00
2022-07-28T06:56:42.733Z,617.00
2022-07-28T06:57:42.737Z,603.00
2022-07-28T06:58:43.861Z,553.00
2022-07-28T06:59:42.784Z,556.00
2022-07-28T07:00:42.898Z,596.00
2022-07-28T07:01:42.827Z,621.00
2022-07-28T07:02:42.844Z,599.00
2022-07-28T07:03:42.904Z,588.00
2022-07-28T07:04:42.925Z,591.00
2022-07-28T07:05:42.891Z,619.00
2022-07-28T07:06:42.908Z,632.00
2022-07-28T07:07:43.746Z,649.00
2022-07-28T07:08:42.964Z,665.00
2022-07-28T07:09:42.995Z,681.00
2022-07-28T07:10:43.010Z,635.00
2022-07-28T07:11:43.025Z,629.00
2022-07-28T07:12:43.042Z,612.00
2022-07-28T07:13:43.071Z,610.00
2022-07-28T07:14:43.077Z,621.00
2022-07-28T07:15:43.109Z,633.00
2022-07-28T07:16:43.174Z,664.00
2022-07-28T07:17:43.211Z,717.00
2022-07-28T07:18:43.126Z,738.00
2022-07-28T07:19:43.114Z,742.00
2022-07-28T07:20:43.199Z,797.00
2022-07-28T07:21:43.170Z,714.00
2022-07-28T07:22:43.194Z,689.00
2022-07-28T07:23:43.207Z,677.00
2022-07-28T07:24:43.222Z,670.00
2022-07-28T07:25:43.266Z,645.00
2022-07-28T07:26:43.283Z,623.00
2022-07-28T07:27:43.261Z,605.00
2022-07-28T07:28:43.266Z,630.00
2022-07-28T07:29:43.334Z,635.00
2022-07-28T07:30:43.328Z,636.00
2022-07-28T07:31:43.363Z,595.00
2022-07-28T07:32:43.311Z,617.00
2022-07-28T07:33:43.298Z,627.00
2022-07-28T07:34:43.340Z,620.00
2022-07-28T07:35:43.407Z,625.00
2022-07-28T07:36:43.383Z,620.00
2022-07-28T07:37:43.587Z,591.00
2022-07-28T07:38:43.367Z,623.00
2022-07-28T07:39:43.415Z,623.00
2022-07-28T07:40:43.460Z,631.00
2022-07-28T07:41:43.446Z,605.00
2022-07-28T07:42:43.459Z,622.00
2022-07-28T07:43:47.592Z,643.00
2022-07-28T07:44:43.540Z,641.00
2022-07-28T07:45:43.509Z,653.00
2022-07-28T07:46:43.594Z,657.00
2022-07-28T07:47:43.566Z,665.00
2022-07-28T07:48:43.595Z,675.00
2022-07-28T07:49:45.912Z,695.00
2022-07-28T07:50:43.852Z,716.00
2022-07-28T07:51:43.756Z,725.00
2022-07-28T07:52:43.589Z,749.00
2022-07-28T07:53:43.620Z,762.00
2022-07-28T07:54:43.655Z,711.00
2022-07-28T07:55:43.719Z,645.00
2022-07-28T07:56:43.659Z,570.00
2022-07-28T07:57:43.691Z,572.00
2022-07-28T07:58:43.715Z,558.00
2022-07-28T07:59:43.737Z,544.00
2022-07-28T08:00:43.763Z,538.00
2022-07-28T08:01:43.825Z,583.00
2022-07-28T08:02:43.824Z,611.00
2022-07-28T08:03:43.857Z,679.00
2022-07-28T08:04:43.905Z,707.00
2022-07-28T08:05:43.848Z,674.00
2022-07-28T08:06:43.882Z,693.00
2022-07-28T08:07:43.898Z,672.00
2022-07-28T08:08:48.305Z,713.00
2022-07-28T08:09:43.903Z,655.00
2022-07-28T08:10:43.934Z,574.00
2022-07-28T08:11:43.954Z,574.00
2022-07-28T08:12:43.983Z,601.00
2022-07-28T08:13:44.033Z,619.00
2022-07-28T08:14:44.002Z,630.00
2022-07-28T08:15:44.134Z,642.00
2022-07-28T08:16:44.178Z,641.00
2022-07-28T08:17:44.109Z,640.00
2022-07-28T08:18:44.108Z,642.00
2022-07-28T08:19:44.100Z,644.00
2022-07-28T08:20:44.124Z,647.00
2022-07-28T08:21:44.124Z,652.00
2022-07-28T08:22:44.184Z,631.00
2022-07-28T08:23:44.144Z,648.00
2022-07-28T08:24:44.142Z,661.00
2022-07-28T08:25:44.186Z,667.00
2022-07-28T08:26:44.191Z,659.00
2022-07-28T08:27:44.219Z,667.00
2022-07-28T08:28:44.257Z,638.00
2022-07-28T08:29:44.268Z,649.00
2022-07-28T08:30:44.300Z,687.00
2022-07-28T08:31:44.315Z,713.00
2022-07-28T08:32:44.309Z,731.00
2022-07-28T08:33:54.148Z,727.00
2022-07-28T08:34:44.398Z,730.00
2022-07-28T08:35:44.357Z,714.00
2022-07-28T08:36:44.355Z,735.00
2022-07-28T08:37:44.383Z,739.00
2022-07-28T08:38:44.360Z,734.00
2022-07-28T08:39:44.372Z,723.00
2022-07-28T08:40:44.396Z,723.00
2022-07-28T08:41:44.426Z,722.00
2022-07-28T08:42:44.454Z,727.00
2022-07-28T08:43:44.461Z,734.00
2022-07-28T08:44:44.496Z,743.00
2022-07-28T08:45:44.530Z,748.00
2022-07-28T08:46:44.632Z,740.00
2022-07-28T08:48:07.421Z,738.00
2022-07-28T08:48:44.657Z,716.00
2022-07-28T08:49:44.582Z,727.00
2022-07-28T08:50:44.607Z,746.00
2022-07-28T08:51:44.624Z,758.00
2022-07-28T08:52:44.681Z,753.00
2022-07-28T08:53:44.748Z,757.00
2022-07-28T08:54:44.697Z,756.00
2022-07-28T08:55:44.726Z,763.00
2022-07-28T08:56:48.045Z,783.00
2022-07-28T08:57:44.762Z,794.00
2022-07-28T08:58:44.751Z,781.00
2022-07-28T08:59:44.773Z,796.00
2022-07-28T09:00:44.807Z,784.00
2022-07-28T09:01:44.819Z,769.00
2022-07-28T09:02:44.950Z,734.00
2022-07-28T09:03:44.987Z,747.00
2022-07-28T09:04:44.827Z,742.00
2022-07-28T09:05:44.834Z,811.00
2022-07-28T09:06:44.863Z,821.00
2022-07-28T09:07:44.953Z,837.00
2022-07-28T09:08:44.905Z,854.00
2022-07-28T09:09:44.918Z,855.00
2022-07-28T09:10:44.921Z,870.00
2022-07-28T09:11:44.975Z,855.00
2022-07-28T09:12:44.951Z,841.00
2022-07-28T09:13:44.932Z,844.00
2022-07-28T09:14:44.947Z,814.00
2022-07-28T09:15:45.036Z,843.00
2022-07-28T09:16:45.005Z,866.00
2022-07-28T09:17:45.057Z,848.00
2022-07-28T09:18:45.029Z,835.00
2022-07-28T09:19:45.063Z,813.00
2022-07-28T09:20:45.271Z,836.00
2022-07-28T09:21:45.028Z,820.00
2022-07-28T09:22:45.059Z,832.00
2022-07-28T09:23:45.079Z,829.00
2022-07-28T09:24:45.088Z,848.00
2022-07-28T09:25:45.118Z,829.00
2022-07-28T09:26:45.130Z,843.00
2022-07-28T09:27:45.130Z,852.00
2022-07-28T09:28:45.201Z,858.00
2022-07-28T09:29:45.179Z,863.00
2022-07-28T09:30:53.843Z,879.00
2022-07-28T09:31:45.274Z,877.00
2022-07-28T09:32:45.220Z,873.00
2022-07-28T09:33:45.260Z,875.00
2022-07-28T09:34:45.254Z,888.00
2022-07-28T09:35:45.290Z,880.00
2022-07-28T09:36:45.253Z,905.00
2022-07-28T09:37:45.279Z,931.00
2022-07-28T09:38:45.320Z,953.00
2022-07-28T09:39:45.307Z,968.00
2022-07-28T09:40:45.333Z,954.00
2022-07-28T09:41:45.311Z,938.00
2022-07-28T09:42:45.339Z,843.00
2022-07-28T09:43:45.537Z,905.00
2022-07-28T09:45:05.907Z,775.00
2022-07-28T09:45:45.384Z,858.00
2022-07-28T09:46:45.642Z,1032.00
2022-07-28T09:47:45.659Z,1032.00
2022-07-28T09:48:45.638Z,1011.00
2022-07-28T09:49:45.432Z,1044.00
2022-07-28T09:50:45.390Z,1047.00
2022-07-28T09:51:45.404Z,919.00
2022-07-28T09:52:45.411Z,971.00
2022-07-28T09:53:45.432Z,1034.00
2022-07-28T09:54:45.426Z,1027.00
2022-07-28T09:55:45.452Z,1015.00
2022-07-28T09:56:45.439Z,1034.00
2022-07-28T09:57:46.017Z,1031.00
2022-07-28T09:58:45.451Z,1026.00
2022-07-28T09:59:48.456Z,1021.00
2022-07-28T10:00:45.491Z,1020.00
2022-07-28T10:01:45.534Z,1026.00
2022-07-28T10:02:45.602Z,1030.00
2022-07-28T10:03:45.566Z,1037.00
2022-07-28T10:04:45.560Z,1005.00
2022-07-28T10:05:48.387Z,968.00
2022-07-28T10:06:45.603Z,964.00
2022-07-28T10:07:45.606Z,934.00
2022-07-28T10:08:45.636Z,959.00
2022-07-28T10:09:45.673Z,1041.00
2022-07-28T10:10:45.652Z,1131.00
2022-07-28T10:11:45.650Z,1167.00
2022-07-28T10:12:45.664Z,1160.00
2022-07-28T10:13:45.675Z,1122.00
2022-07-28T10:14:45.716Z,1085.00
2022-07-28T10:15:50.890Z,1080.00
2022-07-28T10:16:45.716Z,1069.00
2022-07-28T10:17:45.744Z,986.00
2022-07-28T10:18:45.775Z,990.00
2022-07-28T10:19:45.750Z,1035.00
2022-07-28T10:20:45.794Z,930.00
2022-07-28T10:21:45.798Z,888.00
2022-07-28T10:22:45.835Z,922.00
2022-07-28T10:23:45.855Z,854.00
2022-07-28T10:24:45.843Z,836.00
2022-07-28T10:25:45.880Z,893.00
2022-07-28T10:26:45.892Z,885.00
2022-07-28T10:27:45.927Z,987.00
2022-07-28T10:28:45.948Z,861.00
2022-07-28T10:29:45.887Z,939.00
2022-07-28T10:30:46.127Z,943.00
2022-07-28T10:31:45.907Z,930.00
2022-07-28T10:32:45.906Z,881.00
2022-07-28T10:33:45.948Z,833.00
2022-07-28T10:34:45.962Z,871.00
2022-07-28T10:35:54.860Z,865.00
2022-07-28T10:36:45.979Z,943.00
2022-07-28T10:37:46.014Z,1012.00
2022-07-28T10:38:46.053Z,963.00
2022-07-28T10:39:46.039Z,1024.00
2022-07-28T10:40:46.061Z,1075.00
2022-07-28T10:41:46.083Z,1071.00
2022-07-28T10:42:46.083Z,1037.00
2022-07-28T10:43:46.101Z,1077.00
2022-07-28T10:44:46.128Z,1083.00
2022-07-28T10:46:05.023Z,1075.00
2022-07-28T10:46:46.304Z,1075.00
2022-07-28T10:47:46.206Z,1077.00
2022-07-28T10:48:46.301Z,1064.00
2022-07-28T10:49:46.248Z,1030.00
2022-07-28T10:50:46.253Z,1042.00
2022-07-28T10:52:02.677Z,1070.00
2022-07-28T10:52:50.217Z,1060.00
2022-07-28T10:53:46.351Z,1054.00
2022-07-28T10:54:46.322Z,1055.00
2022-07-28T10:55:46.325Z,1054.00
2022-07-28T10:56:46.373Z,1058.00
2022-07-28T10:57:46.332Z,1065.00
2022-07-28T10:58:47.155Z,1059.00
2022-07-28T10:59:46.375Z,1077.00
2022-07-28T11:00:55.482Z,1085.00
2022-07-28T11:01:49.169Z,1092.00
2022-07-28T11:02:46.630Z,1097.00
2022-07-28T11:03:46.488Z,1102.00
2022-07-28T11:04:46.414Z,1101.00
2022-07-28T11:05:46.441Z,1105.00
2022-07-28T11:06:46.469Z,1115.00
2022-07-28T11:07:46.464Z,1119.00
2022-07-28T11:08:47.489Z,1132.00
2022-07-28T11:09:46.493Z,1150.00
2022-07-28T11:10:46.515Z,1158.00
2022-07-28T11:11:46.541Z,1172.00
2022-07-28T11:12:46.560Z,1197.00
2022-07-28T11:13:46.583Z,1221.00
2022-07-28T11:14:46.631Z,1250.00
2022-07-28T11:15:46.588Z,1289.00
2022-07-28T11:16:46.675Z,1137.00
2022-07-28T11:17:46.676Z,1319.00
2022-07-28T11:18:46.629Z,1282.00
2022-07-28T11:20:46.659Z,1327.00
2022-07-28T11:21:51.101Z,1355.00
2022-07-28T11:22:46.728Z,1364.00
2022-07-28T11:23:47.687Z,1430.00
2022-07-28T11:24:46.716Z,1325.00
2022-07-28T11:25:46.844Z,1254.00
2022-07-28T11:26:46.737Z,1365.00
2022-07-28T11:27:46.787Z,1309.00
2022-07-28T11:28:46.790Z,1320.00
2022-07-28T11:29:46.816Z,1489.00
2022-07-28T11:30:46.921Z,1326.00
2022-07-28T11:31:46.849Z,1391.00
2022-07-28T11:32:46.861Z,1304.00
2022-07-28T11:33:47.243Z,1315.00
2022-07-28T11:34:46.866Z,1299.00
2022-07-28T11:35:46.953Z,1338.00
2022-07-28T11:36:46.936Z,1281.00
2022-07-28T11:37:46.908Z,1315.00
2022-07-28T11:38:46.906Z,1225.00
2022-07-28T11:39:46.894Z,1264.00
2022-07-28T11:40:46.903Z,1214.00
2022-07-28T11:41:46.911Z,1164.00
2022-07-28T11:42:46.936Z,1176.00
2022-07-28T11:43:46.908Z,1405.00
2022-07-28T11:44:46.949Z,1126.00
2022-07-28T11:45:54.136Z,1154.00
2022-07-28T11:46:47.066Z,1183.00
2022-07-28T11:47:46.972Z,1157.00
2022-07-28T11:48:47.077Z,1189.00
2022-07-28T11:49:46.957Z,1230.00
2022-07-28T11:50:46.960Z,1169.00
2022-07-28T11:51:52.626Z,1200.00
2022-07-28T11:52:46.993Z,1254.00
2022-07-28T11:53:47.015Z,1537.00
2022-07-28T11:54:46.977Z,1520.00
2022-07-28T11:55:49.881Z,1618.00
2022-07-28T11:56:47.029Z,1570.00
2022-07-28T11:57:51.999Z,1491.00
2022-07-28T11:58:47.083Z,1560.00
2022-07-28T11:59:47.425Z,1673.00
2022-07-28T12:00:47.575Z,1538.00
2022-07-28T12:01:47.147Z,1470.00
2022-07-28T12:02:47.288Z,1520.00
2022-07-28T12:03:50.300Z,1556.00
2022-07-28T12:04:47.278Z,1778.00
2022-07-28T12:05:47.235Z,1897.00
2022-07-28T12:06:51.102Z,1977.00
2022-07-28T12:07:47.273Z,1838.00
2022-07-28T12:08:47.307Z,1838.00
2022-07-28T12:09:47.275Z,419.00
2022-07-28T12:10:55.678Z,344.00
2022-07-28T12:11:47.328Z,344.00
2022-07-28T12:12:47.364Z,328.00
2022-07-28T12:13:47.381Z,341.00
2022-07-28T12:14:47.401Z,332.00
2022-07-28T12:15:47.436Z,322.00
2022-07-28T12:16:47.506Z,314.00
2022-07-28T12:17:47.464Z,319.00
2022-07-28T12:18:47.459Z,321.00
2022-07-28T12:19:47.452Z,330.00
2022-07-28T12:20:48.472Z,333.00
2022-07-28T12:21:48.249Z,340.00
2022-07-28T12:22:47.470Z,340.00
2022-07-28T12:23:49.586Z,339.00
2022-07-28T12:24:47.495Z,346.00
2022-07-28T12:25:47.470Z,349.00
2022-07-28T12:26:50.022Z,306.00
2022-07-28T12:27:47.502Z,338.00
2022-07-28T12:28:47.527Z,316.00
2022-07-28T12:29:47.988Z,295.00
2022-07-28T12:30:47.564Z,296.00
2022-07-28T12:31:47.712Z,294.00
2022-07-28T12:32:47.612Z,294.00
2022-07-28T12:33:47.634Z,299.00
2022-07-28T12:34:47.658Z,316.00
2022-07-28T12:35:47.687Z,337.00
2022-07-28T12:36:47.659Z,347.00
2022-07-28T12:37:47.659Z,342.00
2022-07-28T12:38:47.687Z,349.00
2022-07-28T12:39:47.764Z,355.00
2022-07-28T12:40:47.736Z,338.00
2022-07-28T12:41:47.726Z,337.00
2022-07-28T12:42:51.846Z,323.00
2022-07-28T12:43:47.763Z,336.00